Time;durP1;ratioP1;P1;durP2;ratioP2;P2;SDS_P1;SDS_P2;PMS_P1;PMS_P2;Temp;Humidity;BMP_temperature;BMP_pressure;BME280_temperature;BME280_humidity;BME280_pressure;Samples;Min_cycle;Max_cycle;Signal;HPM_P1;HPM_P2
2022/07/29 00:01:17;;;;;;;3.67;2.70;;;;;;;18.40;58.64;99844.48;1743653;82;21156;-46
2022/07/29 00:03:44;;;;;;;5.78;3.10;;;;;;;18.37;58.43;99841.17;1743774;81;20984;-46
2022/07/29 00:06:11;;;;;;;4.22;2.67;;;;;;;18.34;58.02;99846.69;1743518;82;21020;-46
2022/07/29 00:08:38;;;;;;;5.12;2.98;;;;;;;18.31;58.29;99855.12;1743701;82;21021;-46
2022/07/29 00:11:06;;;;;;;6.67;3.35;;;;;;;18.27;58.70;99858.48;1743769;82;20979;-46
2022/07/29 00:13:34;;;;;;;7.10;3.40;;;;;;;18.24;59.11;99863.40;1743650;82;21657;-46
2022/07/29 00:16:03;;;;;;;5.25;3.05;;;;;;;18.18;59.35;99865.77;1743684;82;21598;-45
2022/07/29 00:18:32;;;;;;;4.67;3.08;;;;;;;18.13;59.65;99860.69;1743471;82;21009;-45
2022/07/29 00:20:59;;;;;;;5.35;2.83;;;;;;;18.05;60.00;99866.61;1743777;81;20973;-45
2022/07/29 00:23:27;;;;;;;5.30;2.80;;;;;;;18.03;60.20;99864.25;1743255;82;21572;-45
2022/07/29 00:25:54;;;;;;;5.92;3.05;;;;;;;18.07;60.65;99863.64;1743311;82;23233;-45
2022/07/29 00:28:23;;;;;;;8.15;3.00;;;;;;;18.11;60.62;99855.39;1743333;82;20926;-46
2022/07/29 00:30:50;;;;;;;4.55;2.80;;;;;;;18.12;60.40;99855.59;1743449;82;20973;-46
2022/07/29 00:33:17;;;;;;;4.10;2.90;;;;;;;18.12;60.08;99858.34;1743490;82;21053;-46
2022/07/29 00:35:45;;;;;;;4.90;3.05;;;;;;;18.11;59.65;99856.77;1743364;81;21582;-46
2022/07/29 00:38:15;;;;;;;5.83;3.35;;;;;;;18.11;59.60;99854.81;1743280;81;21500;-46
2022/07/29 00:40:43;;;;;;;5.67;3.12;;;;;;;18.12;59.69;99855.00;1743602;81;20962;-46
2022/07/29 00:43:11;;;;;;;4.20;3.12;;;;;;;18.10;59.67;99854.64;1743342;82;21030;-46
2022/07/29 00:45:39;;;;;;;6.95;3.00;;;;;;;18.10;59.85;99852.48;1743368;82;21005;-46
2022/07/29 00:48:08;;;;;;;5.50;3.33;;;;;;;18.09;60.02;99846.20;1743444;82;21006;-45
2022/07/29 00:50:36;;;;;;;6.92;3.70;;;;;;;18.09;60.13;99848.17;1743655;82;21140;-46
2022/07/29 00:53:06;;;;;;;5.72;3.30;;;;;;;18.07;60.41;99847.19;1743454;82;20998;-46
2022/07/29 00:55:34;;;;;;;4.92;3.33;;;;;;;18.04;60.42;99845.83;1743581;81;20930;-46
2022/07/29 00:58:02;;;;;;;5.50;3.35;;;;;;;18.02;60.25;99841.32;1743595;81;20899;-46
2022/07/29 01:00:30;;;;;;;7.62;3.60;;;;;;;17.99;60.08;99842.13;1743476;82;21045;-46
2022/07/29 01:02:58;;;;;;;6.30;3.80;;;;;;;17.97;60.23;99841.14;1743489;81;21013;-46
2022/07/29 01:05:27;;;;;;;5.20;3.42;;;;;;;17.93;60.12;99839.59;1743221;82;21481;-46
2022/07/29 01:07:56;;;;;;;;;;;;;;;17.88;60.17;99842.16;1746394;81;21030;-46
2022/07/29 01:10:23;;;;;;;6.30;3.58;;;;;;;17.85;60.08;99843.55;1743491;82;20208;-46
2022/07/29 01:12:52;;;;;;;7.12;3.52;;;;;;;17.70;60.40;99846.33;1743531;81;21543;-46
2022/07/29 01:15:19;;;;;;;5.45;3.40;;;;;;;17.72;60.07;99848.06;1743598;82;21322;-46
2022/07/29 01:18:13;;;;;;;6.28;3.58;;;;;;;17.77;60.09;99849.03;1743518;82;20958;-45
2022/07/29 01:21:36;;;;;;;7.95;3.67;;;;;;;17.81;59.93;99846.30;1743749;81;21013;-45
2022/07/29 01:24:34;;;;;;;8.45;3.77;;;;;;;17.79;59.80;99843.95;1743437;82;21008;-45
2022/07/29 01:27:42;;;;;;;7.87;3.95;;;;;;;17.74;59.70;99838.87;1743557;82;21011;-45
2022/07/29 01:30:09;;;;;;;7.72;4.50;;;;;;;17.72;59.59;99833.57;1743370;82;21084;-46
2022/07/29 01:32:38;;;;;;;6.08;3.72;;;;;;;17.69;59.43;99835.74;1743371;82;21004;-46
2022/07/29 01:35:20;;;;;;;5.92;3.55;;;;;;;17.69;59.47;99836.53;1736071;81;21512;-46
2022/07/29 01:37:53;;;;;;;5.20;3.85;;;;;;;17.68;59.47;99835.54;1734871;82;21046;-45
2022/07/29 01:40:38;;;;;;;6.53;4.12;;;;;;;17.66;59.42;99841.44;1734550;82;21018;-45
2022/07/29 01:43:17;;;;;;;6.80;3.92;;;;;;;17.64;59.36;99843.00;1714886;82;23228;-46
2022/07/29 01:46:00;;;;;;;6.05;3.95;;;;;;;17.60;59.46;99845.75;1734951;82;21014;-46
2022/07/29 01:48:55;;;;;;;5.37;3.87;;;;;;;17.57;59.83;99850.61;1734980;81;21005;-46
2022/07/29 01:51:31;;;;;;;6.47;4.15;;;;;;;17.54;60.72;99855.52;1734958;82;21016;-45
2022/07/29 01:54:24;;;;;;;7.28;3.83;;;;;;;17.50;61.24;99848.48;1735050;82;21038;-46
2022/07/29 01:56:53;;;;;;;7.37;4.00;;;;;;;17.51;61.38;99850.05;1735193;82;21197;-46
2022/07/29 01:59:20;;;;;;;8.48;3.77;;;;;;;17.55;61.15;99843.38;1734978;82;21001;-45
2022/07/29 02:01:48;;;;;;;5.95;4.17;;;;;;;17.60;60.66;99846.34;1735220;82;21021;-46
2022/07/29 02:04:16;;;;;;;5.58;3.75;;;;;;;17.59;60.34;99849.67;1735133;82;21088;-46
2022/07/29 02:06:43;;;;;;;6.47;4.47;;;;;;;17.59;60.12;99851.04;1735436;82;21012;-45
2022/07/29 02:09:10;;;;;;;9.40;4.58;;;;;;;17.60;60.19;99849.87;1735332;82;21243;-46
2022/07/29 02:11:38;;;;;;;6.58;4.28;;;;;;;17.61;60.27;99852.02;1714581;82;20994;-45
2022/07/29 02:14:06;;;;;;;7.33;4.22;;;;;;;17.59;60.07;99852.99;1735331;82;21533;-45
2022/07/29 02:16:33;;;;;;;6.37;3.87;;;;;;;17.58;60.05;99852.18;1729854;82;21642;-45
2022/07/29 02:19:02;;;;;;;6.15;4.12;;;;;;;17.58;59.99;99854.13;1738965;82;21092;-46
2022/07/29 02:21:31;;;;;;;6.60;4.12;;;;;;;17.57;60.13;99853.34;1735242;82;21096;-46
2022/07/29 02:24:00;;;;;;;7.65;4.65;;;;;;;17.54;59.88;99855.52;1735200;82;21022;-46
2022/07/29 02:26:28;;;;;;;4.87;3.73;;;;;;;17.50;59.85;99858.86;1735435;82;20985;-46
2022/07/29 02:28:57;;;;;;;8.10;4.47;;;;;;;17.46;59.85;99854.56;1734910;82;21611;-45
2022/07/29 02:31:28;;;;;;;7.30;4.70;;;;;;;17.44;59.84;99853.57;1734986;82;21041;-46
2022/07/29 02:33:55;;;;;;;7.03;4.28;;;;;;;17.41;59.93;99847.52;1735315;82;21170;-46
2022/07/29 02:36:23;;;;;;;7.92;4.30;;;;;;;17.39;60.07;99852.59;1735035;81;21057;-47
2022/07/29 02:38:51;;;;;;;6.75;4.12;;;;;;;17.36;60.17;99847.91;1749017;82;20945;-45
2022/07/29 02:41:26;;;;;;;7.15;4.12;;;;;;;17.34;60.42;99854.36;1749162;82;21009;-46
2022/07/29 02:43:58;;;;;;;8.38;4.08;;;;;;;17.32;60.35;99852.61;1749157;81;20957;-46
2022/07/29 02:46:33;;;;;;;7.12;4.12;;;;;;;17.31;60.34;99844.98;1748339;82;21160;-45
2022/07/29 02:49:17;;;;;;;10.68;3.87;;;;;;;17.35;60.50;99846.34;1721355;82;21008;-46
2022/07/29 02:52:00;;;;;;;7.67;3.92;;;;;;;17.38;60.53;99849.06;1749265;82;20970;-45
2022/07/29 02:54:35;;;;;;;5.87;4.00;;;;;;;17.40;60.42;99843.20;1748853;82;21029;-45
2022/07/29 02:57:17;;;;;;;7.78;4.00;;;;;;;17.41;60.21;99846.14;1749102;81;21017;-46
2022/07/29 02:59:45;;;;;;;7.55;4.30;;;;;;;17.45;60.08;99844.77;1749146;81;21142;-45
2022/07/29 03:02:13;;;;;;;6.92;4.60;;;;;;;17.47;60.14;99847.32;1749255;82;20949;-46
2022/07/29 03:04:42;;;;;;;9.98;4.47;;;;;;;17.49;60.22;99850.44;1749275;82;20933;-45
2022/07/29 03:07:11;;;;;;;6.53;3.92;;;;;;;17.50;60.23;99852.00;1749274;82;21088;-45
2022/07/29 03:09:41;;;;;;;6.83;4.00;;;;;;;17.53;60.40;99862.17;1749263;82;21045;-46
2022/07/29 03:12:09;;;;;;;7.60;4.30;;;;;;;17.56;60.43;99861.98;1749159;82;21262;-45
2022/07/29 03:14:38;;;;;;;9.30;4.17;;;;;;;17.59;60.35;99868.86;1749055;82;20981;-45
2022/07/29 03:17:05;;;;;;;5.80;4.05;;;;;;;17.60;60.24;99860.83;1748936;82;21001;-45
2022/07/29 03:19:34;;;;;;;6.17;4.05;;;;;;;17.63;60.25;99864.15;1749050;82;21506;-46
2022/07/29 03:22:01;;;;;;;7.37;4.22;;;;;;;17.67;60.26;99872.39;1749132;82;21093;-45
2022/07/29 03:24:33;;;;;;;5.17;3.98;;;;;;;17.68;60.27;99876.09;1748950;82;21082;-45
2022/07/29 03:27:02;;;;;;;6.67;4.00;;;;;;;17.70;60.26;99869.63;1749076;82;20965;-45
2022/07/29 03:29:29;;;;;;;5.85;3.80;;;;;;;17.73;60.33;99866.09;1748998;82;20973;-45
2022/07/29 03:31:56;;;;;;;9.18;3.90;;;;;;;17.79;60.35;99865.89;1749044;82;21084;-45
2022/07/29 03:34:23;;;;;;;7.05;3.92;;;;;;;17.87;60.42;99861.16;1749158;82;21890;-45
2022/07/29 03:36:50;;;;;;;7.92;4.15;;;;;;;17.95;60.46;99855.08;1748642;82;21550;-45
2022/07/29 03:39:21;;;;;;;5.30;3.55;;;;;;;17.99;60.53;99856.63;1734995;82;21782;-45
2022/07/29 03:41:52;;;;;;;7.33;3.95;;;;;;;18.04;60.58;99857.59;1729068;82;21548;-47
2022/07/29 03:44:19;;;;;;;6.70;4.10;;;;;;;18.08;60.84;99860.31;1735414;82;21018;-45
2022/07/29 03:46:46;;;;;;;5.80;4.05;;;;;;;18.14;60.91;99860.11;1735233;82;20998;-45
2022/07/29 03:49:13;;;;;;;8.35;3.87;;;;;;;18.20;60.98;99858.52;1735173;82;21129;-45
2022/07/29 03:51:40;;;;;;;6.62;3.55;;;;;;;18.24;60.69;99856.54;1714326;82;21077;-45
2022/07/29 03:54:08;;;;;;;7.22;3.47;;;;;;;18.29;60.07;99862.98;1735073;82;20985;-45
2022/07/29 03:56:40;;;;;;;5.55;3.58;;;;;;;18.35;59.64;99858.63;1735178;82;21046;-45
2022/07/29 03:59:07;;;;;;;7.35;3.90;;;;;;;18.42;59.55;99860.56;1735561;82;21077;-45
2022/07/29 04:01:34;;;;;;;7.47;3.87;;;;;;;18.48;57.92;99862.50;1735253;82;21241;-45
2022/07/29 04:04:03;;;;;;;6.45;3.90;;;;;;;18.53;57.42;99863.48;1735080;82;20978;-45
2022/07/29 04:06:41;;;;;;;10.70;4.37;;;;;;;18.58;57.09;99858.95;1735171;82;21030;-46
2022/07/29 04:09:09;;;;;;;7.55;4.47;;;;;;;18.63;56.60;99866.77;1734967;82;21029;-45
2022/07/29 04:11:39;;;;;;;10.75;5.40;;;;;;;18.69;56.83;99870.47;1735065;82;20974;-45
2022/07/29 04:14:08;;;;;;;11.00;5.95;;;;;;;18.75;57.04;99872.96;1734976;82;21136;-45
2022/07/29 04:16:36;;;;;;;14.13;7.47;;;;;;;18.82;56.66;99870.97;1734950;82;21540;-45
2022/07/29 04:19:03;;;;;;;12.85;6.95;;;;;;;18.85;57.11;99861.91;1735033;82;21106;-45
2022/07/29 04:21:30;;;;;;;12.25;5.50;;;;;;;18.92;57.28;99861.09;1735097;82;20965;-45
2022/07/29 04:23:59;;;;;;;11.50;5.10;;;;;;;18.98;56.83;99860.83;1734902;82;21002;-45
2022/07/29 04:26:26;;;;;;;7.53;4.12;;;;;;;19.08;56.61;99857.23;1734964;82;21140;-45
2022/07/29 04:28:53;;;;;;;7.25;4.28;;;;;;;19.19;56.26;99855.77;1735103;82;21476;-45
2022/07/29 04:31:21;;;;;;;7.97;4.83;;;;;;;19.27;55.66;99858.64;1734854;82;20962;-45
2022/07/29 04:33:49;;;;;;;7.53;4.30;;;;;;;19.32;55.98;99863.12;1734953;82;21551;-45
2022/07/29 04:36:16;;;;;;;8.55;4.80;;;;;;;19.40;56.51;99865.22;1734755;82;21026;-45
2022/07/29 04:38:44;;;;;;;6.60;4.12;;;;;;;19.48;57.17;99864.00;1744512;81;21237;-45
2022/07/29 04:41:11;;;;;;;8.28;3.47;;;;;;;19.57;57.30;99871.77;1748838;82;20929;-45
2022/07/29 04:43:39;;;;;;;7.15;3.50;;;;;;;19.66;57.38;99870.69;1749060;82;20902;-45
2022/07/29 04:46:06;;;;;;;4.42;2.83;;;;;;;19.74;57.11;99865.33;1749230;82;21041;-45
2022/07/29 04:48:33;;;;;;;4.97;2.90;;;;;;;19.82;56.44;99862.67;1749196;82;21013;-45
2022/07/29 04:51:01;;;;;;;7.67;2.92;;;;;;;19.88;56.04;99862.42;1749157;82;21241;-45
2022/07/29 04:53:28;;;;;;;5.50;3.00;;;;;;;19.96;55.05;99863.89;1748879;82;20989;-45
2022/07/29 04:55:55;;;;;;;6.28;2.62;;;;;;;20.03;55.17;99865.20;1748925;82;20921;-45
2022/07/29 04:58:26;;;;;;;4.67;2.25;;;;;;;20.12;54.60;99860.58;1748900;82;21013;-45
2022/07/29 05:00:53;;;;;;;4.90;2.12;;;;;;;20.17;54.33;99859.53;1749216;82;23179;-45
2022/07/29 05:03:20;;;;;;;4.65;2.40;;;;;;;20.24;54.02;99862.77;1748830;82;21238;-45
2022/07/29 05:05:47;;;;;;;5.72;2.75;;;;;;;20.32;53.87;99858.20;1748953;82;21531;-45
2022/07/29 05:08:14;;;;;;;4.03;2.62;;;;;;;20.42;53.37;99859.25;1748728;82;20996;-45
2022/07/29 05:10:41;;;;;;;5.70;2.92;;;;;;;20.53;53.73;99857.70;1748940;82;21029;-45
2022/07/29 05:13:08;;;;;;;5.25;2.72;;;;;;;20.62;53.05;99853.24;1748936;82;21068;-45
2022/07/29 05:15:36;;;;;;;5.78;2.85;;;;;;;20.74;53.51;99858.20;1748860;82;23185;-45
2022/07/29 05:18:04;;;;;;;4.15;2.67;;;;;;;20.83;52.17;99856.30;1748977;82;21033;-45
2022/07/29 05:20:30;;;;;;;4.10;2.83;;;;;;;20.90;52.33;99853.45;1748967;82;21009;-45
2022/07/29 05:22:58;;;;;;;5.47;3.05;;;;;;;20.98;52.63;99859.62;1748893;82;21072;-45
2022/07/29 05:25:26;;;;;;;3.92;2.55;;;;;;;21.07;53.07;99859.27;1749154;82;21021;-45
2022/07/29 05:27:54;;;;;;;5.87;2.65;;;;;;;21.18;52.93;99860.52;1749011;82;21127;-45
2022/07/29 05:30:22;;;;;;;5.47;2.80;;;;;;;21.29;53.27;99857.59;1748916;82;21463;-45
2022/07/29 05:32:49;;;;;;;5.25;2.90;;;;;;;21.41;52.75;99869.39;1749154;82;21035;-45
2022/07/29 05:35:17;;;;;;;4.50;2.70;;;;;;;21.50;52.32;99864.10;1749067;82;20980;-46
2022/07/29 05:37:45;;;;;;;4.85;2.40;;;;;;;21.60;52.24;99862.54;1748951;81;21154;-46
2022/07/29 05:40:12;;;;;;;5.10;2.70;;;;;;;21.72;51.52;99863.14;1749177;82;21865;-45
2022/07/29 05:42:39;;;;;;;4.03;2.50;;;;;;;21.81;51.01;99861.38;1749112;82;20982;-46
2022/07/29 05:45:09;;;;;;;3.08;2.15;;;;;;;21.89;50.77;99859.25;1748903;82;21029;-46
2022/07/29 05:47:35;;;;;;;4.00;2.55;;;;;;;21.98;50.77;99860.28;1748960;82;21076;-46
2022/07/29 05:51:40;;;;;;;3.40;2.10;;;;;;;22.18;49.74;99865.02;1778840;79;22764;-45
2022/07/29 05:54:08;;;;;;;3.15;2.05;;;;;;;22.17;49.11;99869.80;1738940;82;21050;-45
2022/07/29 05:56:37;;;;;;;4.53;2.00;;;;;;;22.27;48.92;99870.78;1739159;82;21242;-45
2022/07/29 05:59:04;;;;;;;3.72;2.30;;;;;;;22.37;47.37;99876.66;1739067;82;20994;-45
2022/07/29 06:01:32;;;;;;;3.70;1.77;;;;;;;22.46;46.50;99881.03;1738899;82;20978;-45
2022/07/29 06:03:59;;;;;;;4.05;2.20;;;;;;;22.55;46.34;99878.47;1739011;82;21143;-45
2022/07/29 06:06:26;;;;;;;5.20;2.12;;;;;;;22.66;46.80;99878.20;1739203;82;21504;-45
2022/07/29 06:08:54;;;;;;;6.58;2.47;;;;;;;22.75;46.19;99881.97;1738975;82;20931;-45
2022/07/29 06:11:22;;;;;;;4.22;2.00;;;;;;;22.84;46.10;99880.02;1738632;82;21513;-45
2022/07/29 06:13:49;;;;;;;4.42;2.00;;;;;;;22.91;45.81;99880.63;1739000;82;21026;-46
2022/07/29 06:16:17;;;;;;;3.65;2.08;;;;;;;23.02;45.34;99883.75;1738835;82;21017;-45
2022/07/29 06:18:45;;;;;;;3.98;2.02;;;;;;;23.10;45.24;99883.14;1739072;82;20942;-46
2022/07/29 06:21:13;;;;;;;4.35;2.22;;;;;;;23.21;44.76;99877.36;1738922;82;21071;-46
2022/07/29 06:23:40;;;;;;;4.70;1.95;;;;;;;23.31;45.03;99873.56;1738804;82;20961;-45
2022/07/29 06:26:08;;;;;;;3.52;1.95;;;;;;;23.39;44.49;99879.08;1739063;82;20951;-46
2022/07/29 06:28:36;;;;;;;3.05;2.12;;;;;;;23.47;44.72;99877.73;1739047;82;21042;-45
2022/07/29 06:31:05;;;;;;;4.10;1.90;;;;;;;23.55;44.05;99876.94;1739247;82;21574;-46
2022/07/29 06:33:33;;;;;;;2.37;1.60;;;;;;;23.64;42.69;99877.88;1739248;82;21953;-45
2022/07/29 06:36:05;;;;;;;5.12;2.02;;;;;;;23.68;41.64;99875.78;1739168;82;20989;-46
2022/07/29 06:38:33;;;;;;;3.58;1.62;;;;;;;23.74;41.24;99879.59;1739501;82;21006;-46
2022/07/29 06:41:02;;;;;;;5.15;1.82;;;;;;;23.80;42.20;99873.70;1739351;82;20907;-46
2022/07/29 06:43:41;;;;;;;2.83;1.60;;;;;;;23.91;42.42;99870.64;1739211;82;21026;-46
2022/07/29 06:46:08;;;;;;;3.15;1.60;;;;;;;24.03;41.98;99875.44;1738623;82;21190;-46
2022/07/29 06:48:36;;;;;;;4.40;2.08;;;;;;;24.13;40.94;99873.59;1739223;82;21029;-45
2022/07/29 06:51:03;;;;;;;3.37;1.92;;;;;;;24.23;40.70;99880.85;1748786;81;21577;-45
2022/07/29 06:53:31;;;;;;;4.53;1.70;;;;;;;24.34;41.31;99875.78;1754780;81;21014;-45
2022/07/29 06:55:59;;;;;;;4.40;1.75;;;;;;;24.48;41.63;99871.81;1755010;81;20998;-46
2022/07/29 06:58:27;;;;;;;2.10;1.65;;;;;;;24.63;41.21;99875.72;1755256;81;21080;-46
2022/07/29 07:01:01;;;;;;;3.37;1.60;;;;;;;24.76;40.84;99870.95;1754819;81;21021;-46
2022/07/29 07:03:30;;;;;;;2.87;1.85;;;;;;;24.89;40.40;99863.43;1754765;81;20971;-46
2022/07/29 07:05:57;;;;;;;2.52;1.57;;;;;;;25.04;40.06;99863.15;1754396;81;20998;-46
2022/07/29 07:08:25;;;;;;;5.05;2.10;;;;;;;25.17;39.30;99864.54;1754424;81;21085;-46
2022/07/29 07:10:52;;;;;;;2.95;1.80;;;;;;;25.25;38.66;99863.07;1754354;81;21293;-46
2022/07/29 07:13:19;;;;;;;3.52;2.05;;;;;;;25.26;38.44;99870.79;1754344;81;21015;-46
2022/07/29 07:15:50;;;;;;;6.30;2.27;;;;;;;25.28;38.76;99879.42;1754239;81;22109;-46
2022/07/29 07:18:19;;;;;;;3.05;1.60;;;;;;;25.29;38.97;99874.05;1754337;81;20966;-46
2022/07/29 07:20:48;;;;;;;4.60;1.90;;;;;;;25.33;39.13;99873.31;1754485;81;21019;-46
2022/07/29 07:23:16;;;;;;;3.40;1.92;;;;;;;25.40;39.40;99878.03;1754472;81;21137;-46
2022/07/29 07:25:42;;;;;;;4.15;1.98;;;;;;;25.48;38.20;99877.95;1754406;81;21101;-46
2022/07/29 07:28:10;;;;;;;4.10;2.25;;;;;;;25.62;38.85;99878.10;1754503;81;21084;-46
2022/07/29 07:30:36;;;;;;;3.87;1.80;;;;;;;25.80;37.95;99879.64;1754576;81;21505;-46
2022/07/29 07:33:04;;;;;;;2.90;1.67;;;;;;;26.01;37.49;99875.95;1754826;81;21531;-45
2022/07/29 07:35:32;;;;;;;6.12;1.95;;;;;;;26.16;37.42;99876.99;1754563;81;21245;-46
2022/07/29 07:37:59;;;;;;;2.85;1.90;;;;;;;26.24;37.10;99873.52;1748304;81;21025;-47
2022/07/29 07:40:27;;;;;;;3.62;1.98;;;;;;;26.28;36.86;99876.97;1754341;81;21342;-46
2022/07/29 07:42:54;;;;;;;3.58;1.50;;;;;;;26.27;37.56;99881.58;1754615;81;21066;-46
2022/07/29 07:45:22;;;;;;;2.35;1.47;;;;;;;26.24;37.36;99882.47;1753944;81;21014;-46
2022/07/29 07:47:49;;;;;;;4.55;1.80;;;;;;;26.22;37.06;99879.39;1715519;83;21149;-46
2022/07/29 07:50:18;;;;;;;4.22;1.98;;;;;;;26.16;37.65;99876.99;1715254;83;21073;-46
2022/07/29 07:52:52;;;;;;;2.65;1.90;;;;;;;26.16;38.26;99881.16;1715543;83;20965;-46
2022/07/29 07:55:20;;;;;;;2.90;1.80;;;;;;;26.24;37.82;99887.42;1715079;83;21515;-46
2022/07/29 07:57:47;;;;;;;3.52;1.60;;;;;;;26.33;36.96;99884.73;1715722;83;21107;-46
2022/07/29 08:00:15;;;;;;;3.62;2.00;;;;;;;26.43;37.22;99882.77;1715372;83;21191;-46
2022/07/29 08:02:44;;;;;;;3.40;2.00;;;;;;;26.56;37.20;99889.63;1715526;83;21068;-46
2022/07/29 08:05:16;;;;;;;3.37;1.82;;;;;;;26.69;37.15;99886.14;1715523;83;28678;-46
2022/07/29 08:07:43;;;;;;;2.98;1.90;;;;;;;26.85;36.89;99890.08;1751450;81;20989;-46
2022/07/29 08:10:13;;;;;;;3.17;2.10;;;;;;;27.02;36.73;99885.84;1751240;82;21013;-46
2022/07/29 08:12:40;;;;;;;4.37;2.08;;;;;;;27.19;36.43;99885.75;1715888;83;21082;-46
2022/07/29 08:15:09;;;;;;;4.08;2.05;;;;;;;27.36;36.76;99884.07;1715278;83;20906;-46
2022/07/29 08:17:36;;;;;;;2.85;1.80;;;;;;;27.45;35.26;99888.30;1715702;83;20984;-46
2022/07/29 08:20:05;;;;;;;2.85;1.67;;;;;;;27.48;36.02;99890.14;1715442;83;21578;-46
2022/07/29 08:22:32;;;;;;;2.70;2.00;;;;;;;27.52;35.80;99885.22;1715792;83;21004;-46
2022/07/29 08:25:00;;;;;;;2.87;1.80;;;;;;;27.59;35.57;99885.69;1751350;82;23221;-46
2022/07/29 08:27:29;;;;;;;3.08;1.80;;;;;;;27.64;35.18;99891.29;1751350;82;21086;-46
2022/07/29 08:29:57;;;;;;;2.80;1.70;;;;;;;27.58;35.35;99890.34;1715604;83;20990;-46
2022/07/29 08:32:25;;;;;;;2.52;1.82;;;;;;;27.49;35.39;99888.33;1715543;83;21616;-46
2022/07/29 08:34:52;;;;;;;4.50;1.98;;;;;;;27.42;35.39;99884.41;1715676;83;21009;-46
2022/07/29 08:37:20;;;;;;;5.12;2.08;;;;;;;27.45;35.84;99890.44;1751610;82;21135;-46
2022/07/29 08:39:48;;;;;;;4.10;2.20;;;;;;;27.52;35.88;99889.41;1751596;82;20957;-46
2022/07/29 08:42:16;;;;;;;2.90;1.87;;;;;;;27.60;36.03;99894.81;1715490;83;20930;-46
2022/07/29 08:44:43;;;;;;;3.45;1.95;;;;;;;27.64;35.68;99898.25;1751486;82;21032;-46
2022/07/29 08:47:12;;;;;;;2.52;1.90;;;;;;;27.67;35.92;99898.71;1751700;82;21057;-46
2022/07/29 08:49:39;;;;;;;3.77;1.90;;;;;;;27.72;35.79;99898.09;1751520;81;22122;-46
2022/07/29 08:52:07;;;;;;;2.58;1.92;;;;;;;27.72;34.53;99898.09;1715354;83;21525;-46
2022/07/29 08:54:35;;;;;;;3.33;2.20;;;;;;;27.66;35.94;99893.75;1732461;82;21025;-46
2022/07/29 08:57:03;;;;;;;4.70;2.22;;;;;;;27.67;35.39;99888.95;1715342;83;21070;-46
2022/07/29 08:59:31;;;;;;;5.78;2.08;;;;;;;27.73;35.10;99884.33;1715615;83;21622;-46
2022/07/29 09:01:59;;;;;;;3.90;1.70;;;;;;;27.84;35.81;99886.63;1715462;83;22040;-46
2022/07/29 09:04:31;;;;;;;3.45;1.72;;;;;;;27.96;35.94;99883.70;1751641;81;21864;-46
2022/07/29 09:07:00;;;;;;;3.85;1.80;;;;;;;28.08;35.80;99881.36;1751811;82;20938;-46
2022/07/29 09:09:27;;;;;;;3.22;1.72;;;;;;;28.12;35.06;99877.69;1751337;82;21073;-46
2022/07/29 09:11:54;;;;;;;2.50;1.65;;;;;;;28.09;34.74;99879.34;1751390;81;21006;-46
2022/07/29 09:14:22;;;;;;;2.95;2.10;;;;;;;28.04;34.88;99879.35;1751338;82;23111;-46
2022/07/29 09:16:54;;;;;;;3.37;1.72;;;;;;;28.01;35.97;99878.13;1751429;82;21645;-46
2022/07/29 09:19:26;;;;;;;4.20;1.87;;;;;;;28.07;36.00;99879.05;1751355;82;20949;-46
2022/07/29 09:21:58;;;;;;;3.30;2.17;;;;;;;28.18;35.17;99879.36;1751447;82;21504;-46
2022/07/29 09:24:44;;;;;;;2.50;1.82;;;;;;;28.37;35.08;99875.95;1751522;82;21009;-46
2022/07/29 09:27:26;;;;;;;4.83;2.27;;;;;;;28.55;34.69;99874.49;1751783;82;21089;-46
2022/07/29 09:30:12;;;;;;;4.67;2.08;;;;;;;28.70;34.34;99872.59;1751434;81;21515;-46
2022/07/29 09:32:58;;;;;;;3.92;1.87;;;;;;;28.84;33.11;99875.34;1751736;82;21016;-46
2022/07/29 09:35:26;;;;;;;3.20;1.90;;;;;;;28.91;33.99;99877.16;1751127;82;21016;-46
2022/07/29 09:37:54;;;;;;;3.30;1.63;;;;;;;29.05;34.56;99872.91;1716095;83;21020;-46
2022/07/29 09:40:26;;;;;;;4.30;2.10;;;;;;;29.22;34.35;99879.66;1715345;83;21240;-46
2022/07/29 09:42:56;;;;;;;5.33;1.90;;;;;;;29.34;32.99;99873.08;1751904;81;20965;-46
2022/07/29 09:45:31;;;;;;;3.22;1.82;;;;;;;29.40;33.39;99875.99;1751504;82;21539;-46
2022/07/29 09:48:18;;;;;;;2.92;1.92;;;;;;;29.50;33.23;99871.11;1751834;81;20978;-46
2022/07/29 09:50:49;;;;;;;2.95;1.82;;;;;;;29.61;33.01;99864.37;1752163;81;20945;-46
2022/07/29 09:53:37;;;;;;;2.98;2.00;;;;;;;29.80;33.80;99867.94;1720946;83;21872;-46
2022/07/29 09:56:05;;;;;;;2.40;1.92;;;;;;;29.96;32.63;99870.17;1720785;83;20989;-46
2022/07/29 09:58:34;;;;;;;2.60;1.50;;;;;;;29.91;31.81;99870.84;1720873;83;26630;-46
2022/07/29 10:01:02;;;;;;;2.83;1.70;;;;;;;29.87;32.78;99866.03;1720849;83;20993;-46
2022/07/29 10:03:30;;;;;;;2.67;2.08;;;;;;;29.89;33.46;99874.72;1720706;83;21043;-46
2022/07/29 10:06:10;;;;;;;4.67;1.75;;;;;;;29.99;33.23;99859.41;1695033;83;21507;-46
2022/07/29 10:08:39;;;;;;;3.62;1.92;;;;;;;30.09;32.89;99865.07;1720659;83;21016;-46
2022/07/29 10:11:13;;;;;;;2.58;1.62;;;;;;;30.12;31.85;99862.70;1720677;83;21028;-46
2022/07/29 10:13:44;;;;;;;4.70;2.20;;;;;;;29.99;31.57;99865.01;1721015;83;21597;-46
2022/07/29 10:16:11;;;;;;;3.27;2.00;;;;;;;29.78;31.83;99854.28;1721040;83;21013;-46
2022/07/29 10:18:39;;;;;;;3.58;1.90;;;;;;;29.69;33.23;99855.76;1720949;83;21799;-46
2022/07/29 10:21:07;;;;;;;3.05;1.75;;;;;;;29.66;32.40;99860.30;1720619;83;21008;-46
2022/07/29 10:23:35;;;;;;;3.55;1.90;;;;;;;29.54;33.11;99861.30;1720727;83;21506;-46
2022/07/29 10:26:04;;;;;;;4.08;1.90;;;;;;;29.34;32.84;99858.34;1720874;83;21518;-46
2022/07/29 10:28:31;;;;;;;2.45;1.57;;;;;;;29.14;32.98;99860.31;1720666;83;21624;-46
2022/07/29 10:31:04;;;;;;;2.80;2.00;;;;;;;29.05;33.10;99859.59;1720760;83;21579;-46
2022/07/29 10:33:46;;;;;;;3.45;2.02;;;;;;;29.01;33.77;99853.39;1720630;83;20936;-46
2022/07/29 10:36:39;;;;;;;2.65;1.80;;;;;;;29.01;33.46;99851.98;1720902;83;21004;-46
2022/07/29 10:39:28;;;;;;;4.83;1.80;;;;;;;29.06;33.59;99849.95;1720949;83;21032;-46
2022/07/29 10:42:22;;;;;;;3.98;1.80;;;;;;;29.18;33.76;99846.95;1718434;83;21020;-46
2022/07/29 10:44:50;;;;;;;6.17;2.00;;;;;;;29.38;33.23;99834.44;1721064;83;21199;-46
2022/07/29 10:47:26;;;;;;;4.40;1.90;;;;;;;29.64;32.49;99845.23;1720893;83;20968;-46
2022/07/29 10:50:02;;;;;;;2.60;1.85;;;;;;;29.71;31.89;99840.69;1721097;83;20980;-46
2022/07/29 10:52:52;;;;;;;2.77;1.90;;;;;;;29.81;32.42;99839.37;1711737;83;21080;-46
2022/07/29 10:55:48;;;;;;;2.77;1.60;;;;;;;30.08;32.24;99842.55;1713279;81;21559;-46
2022/07/29 10:58:23;;;;;;;2.37;1.60;;;;;;;30.39;32.18;99836.48;1706629;83;20922;-46
2022/07/29 11:00:53;;;;;;;2.87;1.80;;;;;;;30.71;32.13;99835.49;1743477;81;20934;-46
2022/07/29 11:03:47;;;;;;;3.90;2.00;;;;;;;31.04;30.59;99839.44;1744012;81;21464;-46
2022/07/29 11:06:16;;;;;;;2.55;1.67;;;;;;;31.24;30.23;99839.45;1743528;81;21034;-46
2022/07/29 11:08:43;;;;;;;2.00;1.50;;;;;;;31.39;30.62;99842.20;1743552;82;21050;-46
2022/07/29 11:11:30;;;;;;;3.87;2.03;;;;;;;31.70;30.49;99840.19;1743760;81;20966;-46
2022/07/29 11:13:57;;;;;;;2.52;1.82;;;;;;;32.13;29.57;99832.75;1743407;82;21568;-46
2022/07/29 11:16:26;;;;;;;3.50;1.60;;;;;;;32.65;28.44;99834.23;1743791;82;20939;-46
2022/07/29 11:19:20;;;;;;;5.10;2.00;;;;;;;32.90;27.55;99831.22;1686277;84;21092;-46
2022/07/29 11:21:49;;;;;;;4.95;2.08;;;;;;;33.13;27.49;99825.84;1707934;84;21088;-46
2022/07/29 11:24:34;;;;;;;2.12;1.60;;;;;;;33.34;27.42;99827.13;1707746;84;21146;-46
2022/07/29 11:27:13;;;;;;;3.08;1.70;;;;;;;33.53;27.23;99822.59;1743532;82;21009;-46
2022/07/29 11:29:53;;;;;;;3.12;1.80;;;;;;;33.69;26.76;99814.89;1743093;81;21535;-46
2022/07/29 11:32:24;;;;;;;3.00;2.17;;;;;;;33.73;27.47;99811.19;1743430;81;20973;-46
2022/07/29 11:35:21;;;;;;;5.00;1.98;;;;;;;33.88;27.68;99806.11;1743540;82;21025;-46
2022/07/29 11:38:25;;;;;;;4.58;1.80;;;;;;;34.22;27.06;99801.95;1702993;83;21091;-46
2022/07/29 11:41:22;;;;;;;3.00;1.80;;;;;;;34.51;25.78;99800.02;1707912;84;20977;-46
2022/07/29 11:43:55;;;;;;;4.37;1.70;;;;;;;34.76;25.92;99803.18;1708009;84;21905;-46
2022/07/29 11:46:51;;;;;;;2.77;1.60;;;;;;;34.83;26.07;99797.03;1743591;81;21009;-46
2022/07/29 11:49:23;;;;;;;2.20;1.70;;;;;;;34.87;25.09;99796.13;1743866;81;21009;-46
2022/07/29 11:51:52;;;;;;;2.02;1.50;;;;;;;34.82;25.71;99794.72;1710197;83;23270;-46
2022/07/29 11:54:29;;;;;;;3.15;1.37;;;;;;;34.59;25.78;99789.75;1751511;82;21882;-46